createdAt,value
2022-09-15T00:02:21.245Z,93.31
2022-09-15T00:07:28.958Z,93.23
2022-09-15T00:12:36.430Z,93.17
2022-09-15T00:17:43.894Z,93.21
2022-09-15T00:22:51.437Z,93.14
2022-09-15T00:27:58.365Z,93.14
2022-09-15T00:33:05.252Z,93.19
2022-09-15T00:38:13.297Z,93.26
2022-09-15T00:43:22.692Z,93.26
2022-09-15T00:48:29.586Z,93.27
2022-09-15T00:53:37.136Z,93.33
2022-09-15T00:58:49.706Z,93.46
2022-09-15T01:03:57.574Z,93.52
2022-09-15T01:09:10.802Z,93.46
2022-09-15T01:14:18.093Z,93.39
2022-09-15T01:20:01.292Z,93.39
2022-09-15T01:25:22.566Z,93.38
2022-09-15T01:30:33.779Z,93.46
2022-09-15T01:35:52.267Z,93.47
2022-09-15T01:41:06.726Z,93.41
2022-09-15T01:46:15.759Z,93.47
2022-09-15T01:51:25.271Z,93.54
2022-09-15T01:56:32.516Z,93.56
2022-09-15T02:01:45.427Z,93.61
2022-09-15T02:06:59.119Z,93.66
2022-09-15T02:12:14.531Z,93.65
2022-09-15T02:17:22.680Z,93.61
2022-09-15T02:22:34.727Z,93.61
2022-09-15T02:27:45.848Z,93.70
2022-09-15T02:32:57.214Z,93.76
2022-09-15T02:38:09.132Z,93.82
2022-09-15T02:43:18.859Z,93.86
2022-09-15T02:48:26.465Z,93.87
2022-09-15T02:53:35.870Z,94.00
2022-09-15T02:58:42.710Z,94.38
2022-09-15T03:03:50.378Z,94.97
2022-09-15T03:09:00.310Z,95.51
2022-09-15T03:14:08.283Z,95.91
2022-09-15T03:19:15.323Z,94.07
2022-09-15T03:24:23.212Z,94.12
2022-09-15T03:29:30.278Z,94.17
2022-09-15T03:34:37.558Z,94.26
2022-09-15T03:39:44.818Z,94.22
2022-09-15T03:44:51.715Z,94.09
2022-09-15T03:50:00.523Z,94.02
2022-09-15T03:55:08.353Z,94.01
2022-09-15T04:00:17.229Z,94.41
2022-09-15T04:05:24.248Z,94.64
2022-09-15T04:10:31.566Z,94.88
2022-09-15T04:15:39.158Z,94.87
2022-09-15T04:20:46.075Z,94.88
2022-09-15T04:26:00.578Z,95.01
2022-09-15T04:31:09.129Z,95.12
2022-09-15T04:36:18.175Z,95.18
2022-09-15T04:41:25.924Z,95.33
2022-09-15T04:46:33.305Z,95.16
2022-09-15T04:51:40.533Z,95.28
2022-09-15T04:56:47.613Z,95.41
2022-09-15T05:01:56.367Z,95.50
2022-09-15T05:07:03.388Z,95.61
2022-09-15T05:12:10.499Z,95.71
2022-09-15T05:17:17.246Z,95.65
2022-09-15T05:22:24.143Z,95.56
2022-09-15T05:27:33.956Z,95.44
2022-09-15T05:32:40.942Z,95.28
2022-09-15T05:37:48.108Z,95.14
2022-09-15T05:42:54.969Z,95.05
2022-09-15T05:48:01.832Z,95.08
2022-09-15T05:53:09.195Z,95.20
2022-09-15T05:58:16.690Z,95.25
2022-09-15T06:03:30.087Z,95.25
2022-09-15T06:08:43.770Z,95.24
2022-09-15T06:13:51.626Z,95.06
2022-09-15T06:18:59.927Z,95.09
2022-09-15T06:24:07.984Z,95.24
2022-09-15T06:29:15.182Z,95.40
2022-09-15T06:34:22.344Z,95.62
2022-09-15T06:39:29.656Z,95.80
2022-09-15T06:44:37.039Z,95.70
2022-09-15T06:49:43.974Z,95.56
2022-09-15T06:54:51.082Z,95.43
2022-09-15T06:59:58.129Z,95.30
2022-09-15T07:05:05.393Z,95.98
2022-09-15T07:10:12.742Z,96.38
2022-09-15T07:15:19.741Z,96.67
2022-09-15T07:20:27.493Z,96.87
2022-09-15T07:25:34.536Z,96.79
2022-09-15T07:30:42.245Z,96.94
2022-09-15T07:35:49.428Z,97.03
2022-09-15T07:40:56.483Z,97.19
2022-09-15T07:46:04.268Z,97.25
2022-09-15T07:51:11.396Z,97.54
2022-09-15T07:56:19.804Z,97.77
2022-09-15T08:01:27.052Z,97.96
2022-09-15T08:06:34.342Z,97.96
2022-09-15T08:11:42.090Z,97.81
2022-09-15T08:16:49.157Z,98.01
2022-09-15T08:21:56.150Z,98.25
2022-09-15T08:27:03.208Z,98.41
2022-09-15T08:32:10.454Z,98.57
2022-09-15T08:37:17.482Z,98.70
2022-09-15T08:42:27.078Z,98.52
2022-09-15T08:47:37.283Z,98.60
2022-09-15T08:52:47.159Z,98.76
2022-09-15T08:57:59.145Z,99.09
2022-09-15T09:03:30.986Z,99.07
2022-09-15T09:09:08.537Z,99.01
2022-09-15T09:14:24.892Z,99.19
2022-09-15T09:19:57.757Z,99.42
2022-09-15T09:25:25.743Z,99.59
2022-09-15T09:30:36.444Z,99.82
2022-09-15T09:35:46.435Z,99.90
2022-09-15T09:40:55.742Z,100.00
2022-09-15T09:46:11.161Z,100.00
2022-09-15T09:51:38.463Z,100.00
2022-09-15T09:56:46.405Z,100.00
2022-09-15T10:07:33.340Z,100.00
2022-09-15T10:12:43.296Z,100.00
2022-09-15T10:17:53.031Z,100.00
2022-09-15T10:23:24.328Z,100.00
2022-09-15T10:28:31.558Z,100.00
2022-09-15T10:33:40.499Z,100.00
2022-09-15T10:38:50.142Z,100.00
2022-09-15T10:44:26.604Z,100.00
2022-09-15T10:49:49.831Z,100.00
2022-09-15T10:55:24.604Z,100.00
2022-09-15T11:00:46.805Z,100.00
2022-09-15T11:06:10.814Z,100.00
2022-09-15T11:11:30.686Z,100.00
2022-09-15T11:16:51.245Z,100.00
2022-09-15T11:21:58.777Z,100.00
2022-09-15T11:27:13.148Z,100.00
2022-09-15T11:32:25.635Z,100.00
2022-09-15T11:37:40.399Z,100.00
2022-09-15T11:42:54.173Z,100.00
2022-09-15T11:48:06.027Z,100.00
2022-09-15T11:53:20.818Z,100.00
2022-09-15T11:58:35.466Z,100.00
2022-09-15T12:03:48.363Z,100.00
2022-09-15T12:08:58.528Z,100.00
2022-09-15T12:14:05.314Z,100.00
2022-09-15T12:19:19.828Z,100.00
2022-09-15T12:24:34.358Z,100.00
2022-09-15T12:29:49.107Z,100.00
2022-09-15T12:35:30.531Z,100.00
2022-09-15T12:40:39.905Z,100.00
2022-09-15T12:45:58.328Z,100.00
2022-09-15T12:51:10.643Z,100.00
2022-09-15T12:56:27.609Z,100.00
2022-09-15T13:01:49.622Z,100.00
2022-09-15T13:07:36.757Z,100.00
2022-09-15T13:12:50.778Z,100.00
2022-09-15T13:17:59.337Z,100.00
2022-09-15T13:23:10.384Z,100.00
2022-09-15T13:28:18.984Z,100.00
2022-09-15T13:39:45.854Z,100.00
2022-09-15T13:45:40.250Z,100.00
2022-09-15T13:50:56.657Z,100.00
2022-09-15T13:56:08.376Z,100.00
2022-09-15T14:01:17.255Z,100.00
2022-09-15T14:06:27.231Z,100.00
2022-09-15T14:11:36.617Z,100.00
2022-09-15T14:16:52.079Z,100.00
2022-09-15T14:21:59.505Z,100.00
2022-09-15T14:27:12.768Z,100.00
2022-09-15T14:32:20.360Z,100.00
2022-09-15T14:37:32.087Z,100.00
2022-09-15T14:42:43.003Z,100.00
2022-09-15T14:47:58.911Z,100.00
2022-09-15T14:53:08.109Z,100.00
2022-09-15T14:58:21.515Z,100.00
2022-09-15T15:03:42.333Z,100.00
2022-09-15T15:08:55.227Z,100.00
2022-09-15T15:14:03.260Z,100.00
2022-09-15T15:19:33.594Z,100.00
2022-09-15T15:24:44.561Z,100.00
2022-09-15T15:29:51.884Z,100.00
2022-09-15T15:35:04.088Z,100.00
2022-09-15T15:40:18.501Z,100.00
2022-09-15T15:45:27.436Z,100.00
2022-09-15T15:50:36.916Z,100.00
2022-09-15T15:55:44.451Z,100.00
2022-09-15T16:00:53.236Z,100.00
2022-09-15T16:06:03.073Z,100.00
2022-09-15T16:11:12.760Z,100.00
2022-09-15T16:16:21.741Z,100.00
2022-09-15T16:21:37.073Z,100.00
2022-09-15T16:26:44.550Z,100.00
2022-09-15T16:31:52.862Z,100.00
2022-09-15T16:36:59.885Z,100.00
2022-09-15T16:42:07.427Z,100.00
2022-09-15T16:47:14.149Z,100.00
2022-09-15T16:52:21.004Z,100.00
2022-09-15T16:57:27.844Z,100.00
2022-09-15T17:02:34.804Z,100.00
2022-09-15T17:07:41.690Z,100.00
2022-09-15T17:12:48.541Z,100.00
2022-09-15T17:17:55.817Z,100.00
2022-09-15T17:23:14.592Z,100.00
2022-09-15T17:28:23.396Z,100.00
2022-09-15T17:33:32.070Z,100.00
2022-09-15T17:38:49.235Z,100.00
2022-09-15T17:44:06.593Z,100.00
2022-09-15T17:49:13.824Z,100.00
2022-09-15T17:54:20.764Z,100.00
2022-09-15T17:59:28.530Z,100.00
2022-09-15T18:04:35.562Z,100.00
2022-09-15T18:09:42.841Z,100.00
2022-09-15T18:14:50.158Z,100.00
2022-09-15T18:19:57.139Z,100.00
2022-09-15T18:25:04.535Z,100.00
2022-09-15T18:30:14.489Z,100.00
2022-09-15T18:35:22.588Z,100.00
2022-09-15T18:40:30.789Z,100.00
2022-09-15T18:45:38.316Z,100.00
2022-09-15T18:50:47.086Z,100.00
2022-09-15T18:55:54.085Z,100.00
2022-09-15T19:01:02.897Z,100.00
2022-09-15T19:06:10.712Z,100.00
2022-09-15T19:11:17.749Z,100.00
2022-09-15T19:16:34.695Z,100.00
2022-09-15T19:21:47.386Z,100.00
2022-09-15T19:26:54.226Z,100.00
2022-09-15T19:32:01.046Z,100.00
2022-09-15T19:37:13.065Z,100.00
2022-09-15T19:42:22.145Z,100.00
2022-09-15T19:47:29.017Z,100.00
2022-09-15T19:52:36.129Z,100.00
2022-09-15T19:57:43.760Z,100.00
2022-09-15T20:02:51.194Z,100.00
2022-09-15T20:08:00.695Z,100.00
2022-09-15T20:13:07.589Z,100.00
2022-09-15T20:18:15.499Z,100.00
2022-09-15T20:23:22.609Z,100.00
2022-09-15T20:28:31.490Z,100.00
2022-09-15T20:33:41.084Z,100.00
2022-09-15T20:38:48.757Z,100.00
2022-09-15T20:43:56.148Z,100.00
2022-09-15T20:49:03.271Z,100.00
2022-09-15T20:54:11.404Z,100.00
2022-09-15T20:59:18.562Z,100.00
2022-09-15T21:04:25.440Z,100.00
2022-09-15T21:09:32.317Z,100.00
2022-09-15T21:14:39.340Z,100.00
2022-09-15T21:19:46.259Z,100.00
2022-09-15T21:24:53.033Z,100.00
2022-09-15T21:30:00.030Z,100.00
2022-09-15T21:35:07.570Z,100.00
2022-09-15T21:40:14.683Z,100.00
2022-09-15T21:45:21.809Z,100.00
2022-09-15T21:50:29.729Z,100.00
2022-09-15T21:55:40.231Z,100.00
2022-09-15T22:00:47.459Z,100.00
2022-09-15T22:05:54.438Z,100.00
2022-09-15T22:11:03.911Z,100.00
2022-09-15T22:16:13.445Z,100.00
2022-09-15T22:21:22.784Z,100.00
2022-09-15T22:26:31.220Z,100.00
2022-09-15T22:31:38.867Z,100.00
2022-09-15T22:36:45.758Z,100.00
2022-09-15T22:41:52.884Z,100.00
2022-09-15T22:47:00.144Z,100.00
2022-09-15T22:52:07.132Z,100.00
2022-09-15T22:57:14.098Z,100.00
2022-09-15T23:02:20.973Z,100.00
2022-09-15T23:07:28.144Z,100.00
2022-09-15T23:12:35.895Z,100.00
2022-09-15T23:17:42.800Z,100.00
2022-09-15T23:22:49.583Z,100.00
2022-09-15T23:27:56.504Z,100.00
2022-09-15T23:33:03.423Z,100.00
2022-09-15T23:38:10.265Z,100.00
2022-09-15T23:43:17.992Z,100.00
2022-09-15T23:48:24.904Z,100.00
2022-09-15T23:53:32.281Z,100.00
2022-09-15T23:58:39.772Z,100.00
